sensor_id;sensor_type;location;lat;lon;timestamp;P1;durP1;ratioP1;P2;durP2;ratioP2
75156;SDS011;63736;50.076;8.198;2024-02-04T00:00:47;16.40;;;7.87;;
75156;SDS011;63736;50.076;8.198;2024-02-04T00:02:18;28.03;;;13.47;;
75156;SDS011;63736;50.076;8.198;2024-02-04T00:03:49;41.20;;;18.30;;
75156;SDS011;63736;50.076;8.198;2024-02-04T00:05:19;29.87;;;13.93;;
75156;SDS011;63736;50.076;8.198;2024-02-04T00:06:49;35.92;;;17.52;;
75156;SDS011;63736;50.076;8.198;2024-02-04T00:08:20;32.60;;;15.60;;
75156;SDS011;63736;50.076;8.198;2024-02-04T00:09:50;25.43;;;12.87;;
75156;SDS011;63736;50.076;8.198;2024-02-04T00:11:21;25.90;;;15.60;;
75156;SDS011;63736;50.076;8.198;2024-02-04T00:12:52;27.58;;;15.98;;
75156;SDS011;63736;50.076;8.198;2024-02-04T00:14:22;19.70;;;11.47;;
75156;SDS011;63736;50.076;8.198;2024-02-04T00:15:52;24.70;;;13.87;;
75156;SDS011;63736;50.076;8.198;2024-02-04T00:17:24;29.65;;;17.45;;
75156;SDS011;63736;50.076;8.198;2024-02-04T00:18:59;21.27;;;13.07;;
75156;SDS011;63736;50.076;8.198;2024-02-04T00:20:30;13.60;;;7.60;;
75156;SDS011;63736;50.076;8.198;2024-02-04T00:22:02;13.02;;;8.13;;
75156;SDS011;63736;50.076;8.198;2024-02-04T00:23:33;15.47;;;8.50;;
75156;SDS011;63736;50.076;8.198;2024-02-04T00:25:03;15.25;;;10.23;;
75156;SDS011;63736;50.076;8.198;2024-02-04T00:26:41;13.53;;;7.93;;
75156;SDS011;63736;50.076;8.198;2024-02-04T00:28:12;12.05;;;7.97;;
75156;SDS011;63736;50.076;8.198;2024-02-04T00:29:42;12.50;;;8.20;;
75156;SDS011;63736;50.076;8.198;2024-02-04T00:31:12;10.43;;;6.60;;
75156;SDS011;63736;50.076;8.198;2024-02-04T00:32:42;7.53;;;4.20;;
75156;SDS011;63736;50.076;8.198;2024-02-04T00:34:13;7.88;;;4.45;;
75156;SDS011;63736;50.076;8.198;2024-02-04T00:35:43;8.37;;;4.57;;
75156;SDS011;63736;50.076;8.198;2024-02-04T00:37:13;7.53;;;4.00;;
75156;SDS011;63736;50.076;8.198;2024-02-04T00:38:44;6.57;;;3.33;;
75156;SDS011;63736;50.076;8.198;2024-02-04T00:40:14;5.33;;;2.27;;
75156;SDS011;63736;50.076;8.198;2024-02-04T00:41:44;8.27;;;2.27;;
75156;SDS011;63736;50.076;8.198;2024-02-04T00:43:15;5.00;;;2.00;;
75156;SDS011;63736;50.076;8.198;2024-02-04T00:44:45;4.20;;;1.70;;
75156;SDS011;63736;50.076;8.198;2024-02-04T00:46:15;3.83;;;1.20;;
75156;SDS011;63736;50.076;8.198;2024-02-04T00:47:46;4.40;;;1.50;;
75156;SDS011;63736;50.076;8.198;2024-02-04T00:49:16;3.87;;;1.20;;
75156;SDS011;63736;50.076;8.198;2024-02-04T00:50:46;4.15;;;1.33;;
75156;SDS011;63736;50.076;8.198;2024-02-04T00:52:16;3.30;;;1.10;;
75156;SDS011;63736;50.076;8.198;2024-02-04T00:53:47;3.40;;;0.90;;
75156;SDS011;63736;50.076;8.198;2024-02-04T00:55:17;3.80;;;0.87;;
75156;SDS011;63736;50.076;8.198;2024-02-04T00:56:47;4.73;;;1.03;;
75156;SDS011;63736;50.076;8.198;2024-02-04T00:58:18;3.47;;;0.88;;
75156;SDS011;63736;50.076;8.198;2024-02-04T00:59:48;4.33;;;0.80;;
75156;SDS011;63736;50.076;8.198;2024-02-04T01:01:20;4.43;;;1.40;;
75156;SDS011;63736;50.076;8.198;2024-02-04T01:02:50;5.13;;;1.10;;
75156;SDS011;63736;50.076;8.198;2024-02-04T01:04:20;2.50;;;0.80;;
75156;SDS011;63736;50.076;8.198;2024-02-04T01:05:53;2.10;;;0.47;;
75156;SDS011;63736;50.076;8.198;2024-02-04T01:07:23;3.47;;;0.90;;
75156;SDS011;63736;50.076;8.198;2024-02-04T01:08:53;2.67;;;0.70;;
75156;SDS011;63736;50.076;8.198;2024-02-04T01:10:23;3.60;;;0.90;;
75156;SDS011;63736;50.076;8.198;2024-02-04T01:11:54;3.00;;;0.70;;
75156;SDS011;63736;50.076;8.198;2024-02-04T01:13:24;3.43;;;1.10;;
75156;SDS011;63736;50.076;8.198;2024-02-04T01:14:54;2.23;;;0.67;;
75156;SDS011;63736;50.076;8.198;2024-02-04T01:16:24;4.03;;;1.00;;
75156;SDS011;63736;50.076;8.198;2024-02-04T01:17:55;3.10;;;0.70;;
75156;SDS011;63736;50.076;8.198;2024-02-04T01:19:25;3.77;;;0.67;;
75156;SDS011;63736;50.076;8.198;2024-02-04T01:20:55;3.93;;;0.70;;
75156;SDS011;63736;50.076;8.198;2024-02-04T01:22:26;2.53;;;0.67;;
75156;SDS011;63736;50.076;8.198;2024-02-04T01:23:57;3.05;;;0.70;;
75156;SDS011;63736;50.076;8.198;2024-02-04T01:25:27;3.00;;;0.60;;
75156;SDS011;63736;50.076;8.198;2024-02-04T01:26:57;3.07;;;0.63;;
75156;SDS011;63736;50.076;8.198;2024-02-04T01:28:28;4.78;;;0.93;;
75156;SDS011;63736;50.076;8.198;2024-02-04T01:29:58;2.23;;;0.50;;
75156;SDS011;63736;50.076;8.198;2024-02-04T01:31:28;3.30;;;0.77;;
75156;SDS011;63736;50.076;8.198;2024-02-04T01:32:59;3.63;;;0.90;;
75156;SDS011;63736;50.076;8.198;2024-02-04T01:34:30;3.03;;;0.70;;
75156;SDS011;63736;50.076;8.198;2024-02-04T01:36:00;3.60;;;1.00;;
75156;SDS011;63736;50.076;8.198;2024-02-04T01:37:30;3.97;;;0.77;;
75156;SDS011;63736;50.076;8.198;2024-02-04T01:39:00;3.83;;;0.90;;
75156;SDS011;63736;50.076;8.198;2024-02-04T01:40:31;3.17;;;0.50;;
75156;SDS011;63736;50.076;8.198;2024-02-04T01:42:01;4.07;;;0.80;;
75156;SDS011;63736;50.076;8.198;2024-02-04T01:43:31;2.73;;;0.60;;
75156;SDS011;63736;50.076;8.198;2024-02-04T01:45:02;2.50;;;0.53;;
75156;SDS011;63736;50.076;8.198;2024-02-04T01:46:32;3.70;;;1.00;;
75156;SDS011;63736;50.076;8.198;2024-02-04T01:48:03;3.38;;;0.77;;
75156;SDS011;63736;50.076;8.198;2024-02-04T01:49:34;2.50;;;0.60;;
75156;SDS011;63736;50.076;8.198;2024-02-04T01:51:05;3.77;;;0.90;;
75156;SDS011;63736;50.076;8.198;2024-02-04T01:52:37;3.42;;;0.57;;
75156;SDS011;63736;50.076;8.198;2024-02-04T01:54:09;3.35;;;0.70;;
75156;SDS011;63736;50.076;8.198;2024-02-04T01:55:39;4.50;;;0.80;;
75156;SDS011;63736;50.076;8.198;2024-02-04T01:57:10;1.95;;;0.50;;
75156;SDS011;63736;50.076;8.198;2024-02-04T01:58:42;3.03;;;0.80;;
75156;SDS011;63736;50.076;8.198;2024-02-04T02:00:13;3.03;;;1.00;;
75156;SDS011;63736;50.076;8.198;2024-02-04T02:01:44;2.80;;;0.60;;
75156;SDS011;63736;50.076;8.198;2024-02-04T02:03:15;3.53;;;0.70;;
75156;SDS011;63736;50.076;8.198;2024-02-04T02:04:46;4.35;;;0.80;;
75156;SDS011;63736;50.076;8.198;2024-02-04T02:06:16;3.10;;;0.70;;
75156;SDS011;63736;50.076;8.198;2024-02-04T02:07:47;4.93;;;0.97;;
75156;SDS011;63736;50.076;8.198;2024-02-04T02:09:21;2.58;;;0.50;;
75156;SDS011;63736;50.076;8.198;2024-02-04T02:10:51;3.80;;;0.70;;
75156;SDS011;63736;50.076;8.198;2024-02-04T02:12:51;2.85;;;0.70;;
75156;SDS011;63736;50.076;8.198;2024-02-04T02:14:28;3.63;;;0.80;;
75156;SDS011;63736;50.076;8.198;2024-02-04T02:16:06;3.38;;;1.00;;
75156;SDS011;63736;50.076;8.198;2024-02-04T02:17:43;2.92;;;0.77;;
75156;SDS011;63736;50.076;8.198;2024-02-04T02:21:13;2.47;;;0.60;;
75156;SDS011;63736;50.076;8.198;2024-02-04T02:22:57;3.80;;;0.70;;
75156;SDS011;63736;50.076;8.198;2024-02-04T02:24:34;3.37;;;0.83;;
75156;SDS011;63736;50.076;8.198;2024-02-04T02:26:12;2.80;;;0.80;;
75156;SDS011;63736;50.076;8.198;2024-02-04T02:27:51;3.22;;;0.80;;
75156;SDS011;63736;50.076;8.198;2024-02-04T02:29:21;3.33;;;0.70;;
75156;SDS011;63736;50.076;8.198;2024-02-04T02:30:52;2.70;;;0.70;;
75156;SDS011;63736;50.076;8.198;2024-02-04T02:32:22;2.70;;;0.70;;
75156;SDS011;63736;50.076;8.198;2024-02-04T02:33:53;2.77;;;0.60;;
75156;SDS011;63736;50.076;8.198;2024-02-04T02:35:23;3.00;;;0.57;;
75156;SDS011;63736;50.076;8.198;2024-02-04T02:36:57;2.40;;;0.70;;
75156;SDS011;63736;50.076;8.198;2024-02-04T02:38:42;2.83;;;0.80;;
75156;SDS011;63736;50.076;8.198;2024-02-04T02:40:32;2.63;;;0.80;;
75156;SDS011;63736;50.076;8.198;2024-02-04T02:42:08;3.13;;;0.80;;
75156;SDS011;63736;50.076;8.198;2024-02-04T02:43:41;2.80;;;0.83;;
75156;SDS011;63736;50.076;8.198;2024-02-04T02:45:13;3.65;;;0.90;;
75156;SDS011;63736;50.076;8.198;2024-02-04T02:46:46;2.67;;;0.75;;
75156;SDS011;63736;50.076;8.198;2024-02-04T02:48:17;2.75;;;0.65;;
75156;SDS011;63736;50.076;8.198;2024-02-04T02:49:50;3.10;;;0.77;;
75156;SDS011;63736;50.076;8.198;2024-02-04T02:51:23;4.15;;;0.80;;
75156;SDS011;63736;50.076;8.198;2024-02-04T02:52:53;3.53;;;0.70;;
75156;SDS011;63736;50.076;8.198;2024-02-04T02:54:23;2.73;;;0.80;;
75156;SDS011;63736;50.076;8.198;2024-02-04T02:55:53;3.00;;;0.80;;
75156;SDS011;63736;50.076;8.198;2024-02-04T02:57:24;2.85;;;0.90;;
75156;SDS011;63736;50.076;8.198;2024-02-04T02:58:54;2.63;;;0.70;;
75156;SDS011;63736;50.076;8.198;2024-02-04T03:00:25;2.80;;;0.80;;
75156;SDS011;63736;50.076;8.198;2024-02-04T03:01:55;2.77;;;0.80;;
75156;SDS011;63736;50.076;8.198;2024-02-04T03:03:25;2.77;;;0.93;;
75156;SDS011;63736;50.076;8.198;2024-02-04T03:04:55;2.93;;;0.90;;
75156;SDS011;63736;50.076;8.198;2024-02-04T03:06:26;3.77;;;0.80;;
75156;SDS011;63736;50.076;8.198;2024-02-04T03:07:56;3.58;;;1.10;;
75156;SDS011;63736;50.076;8.198;2024-02-04T03:09:26;2.70;;;0.80;;
75156;SDS011;63736;50.076;8.198;2024-02-04T03:10:57;3.50;;;0.90;;
75156;SDS011;63736;50.076;8.198;2024-02-04T03:12:27;3.43;;;0.80;;
75156;SDS011;63736;50.076;8.198;2024-02-04T03:13:57;3.97;;;0.90;;
75156;SDS011;63736;50.076;8.198;2024-02-04T03:15:28;3.77;;;0.93;;
75156;SDS011;63736;50.076;8.198;2024-02-04T03:16:58;2.97;;;0.80;;
75156;SDS011;63736;50.076;8.198;2024-02-04T03:18:28;2.77;;;0.70;;
75156;SDS011;63736;50.076;8.198;2024-02-04T03:19:58;2.57;;;0.70;;
75156;SDS011;63736;50.076;8.198;2024-02-04T03:21:29;2.87;;;0.80;;
75156;SDS011;63736;50.076;8.198;2024-02-04T03:22:59;3.20;;;0.80;;
75156;SDS011;63736;50.076;8.198;2024-02-04T03:24:29;3.17;;;0.90;;
75156;SDS011;63736;50.076;8.198;2024-02-04T03:26:00;2.90;;;0.70;;
75156;SDS011;63736;50.076;8.198;2024-02-04T03:27:30;2.87;;;0.67;;
75156;SDS011;63736;50.076;8.198;2024-02-04T03:29:00;3.50;;;0.70;;
75156;SDS011;63736;50.076;8.198;2024-02-04T03:30:30;2.97;;;0.80;;
75156;SDS011;63736;50.076;8.198;2024-02-04T03:32:01;3.10;;;0.80;;
75156;SDS011;63736;50.076;8.198;2024-02-04T03:33:31;3.20;;;0.77;;
75156;SDS011;63736;50.076;8.198;2024-02-04T03:35:02;3.20;;;0.70;;
75156;SDS011;63736;50.076;8.198;2024-02-04T03:36:33;2.90;;;0.70;;
75156;SDS011;63736;50.076;8.198;2024-02-04T03:38:03;3.00;;;0.77;;
75156;SDS011;63736;50.076;8.198;2024-02-04T03:39:33;2.63;;;0.60;;
75156;SDS011;63736;50.076;8.198;2024-02-04T03:41:04;2.60;;;0.80;;
75156;SDS011;63736;50.076;8.198;2024-02-04T03:42:34;2.42;;;0.68;;
75156;SDS011;63736;50.076;8.198;2024-02-04T03:44:04;2.93;;;0.80;;
75156;SDS011;63736;50.076;8.198;2024-02-04T03:45:35;2.17;;;0.63;;
75156;SDS011;63736;50.076;8.198;2024-02-04T03:47:06;2.80;;;0.80;;
75156;SDS011;63736;50.076;8.198;2024-02-04T03:48:36;3.27;;;0.80;;
75156;SDS011;63736;50.076;8.198;2024-02-04T03:50:06;2.53;;;0.60;;
75156;SDS011;63736;50.076;8.198;2024-02-04T03:51:37;2.78;;;0.82;;
75156;SDS011;63736;50.076;8.198;2024-02-04T03:53:07;2.77;;;0.60;;
75156;SDS011;63736;50.076;8.198;2024-02-04T03:54:38;2.53;;;0.60;;
75156;SDS011;63736;50.076;8.198;2024-02-04T03:56:08;2.73;;;0.60;;
75156;SDS011;63736;50.076;8.198;2024-02-04T03:57:38;3.00;;;0.67;;
75156;SDS011;63736;50.076;8.198;2024-02-04T03:59:08;2.53;;;0.80;;
75156;SDS011;63736;50.076;8.198;2024-02-04T04:00:40;3.03;;;0.60;;
75156;SDS011;63736;50.076;8.198;2024-02-04T04:02:11;3.90;;;0.70;;
75156;SDS011;63736;50.076;8.198;2024-02-04T04:03:41;2.35;;;0.55;;
75156;SDS011;63736;50.076;8.198;2024-02-04T04:05:13;2.77;;;0.80;;
75156;SDS011;63736;50.076;8.198;2024-02-04T04:06:44;2.23;;;0.50;;
75156;SDS011;63736;50.076;8.198;2024-02-04T04:08:15;3.85;;;0.80;;
75156;SDS011;63736;50.076;8.198;2024-02-04T04:09:45;2.80;;;0.70;;
75156;SDS011;63736;50.076;8.198;2024-02-04T04:11:15;2.33;;;0.70;;
75156;SDS011;63736;50.076;8.198;2024-02-04T04:12:45;4.00;;;0.60;;
75156;SDS011;63736;50.076;8.198;2024-02-04T04:14:16;4.10;;;0.70;;
75156;SDS011;63736;50.076;8.198;2024-02-04T04:15:46;2.80;;;0.70;;
75156;SDS011;63736;50.076;8.198;2024-02-04T04:17:16;2.20;;;0.60;;
75156;SDS011;63736;50.076;8.198;2024-02-04T04:18:46;3.58;;;0.60;;
75156;SDS011;63736;50.076;8.198;2024-02-04T04:20:17;2.60;;;0.60;;
75156;SDS011;63736;50.076;8.198;2024-02-04T04:21:47;1.90;;;0.50;;
75156;SDS011;63736;50.076;8.198;2024-02-04T04:23:17;2.73;;;0.60;;
75156;SDS011;63736;50.076;8.198;2024-02-04T04:24:48;2.57;;;0.60;;
75156;SDS011;63736;50.076;8.198;2024-02-04T04:26:18;2.10;;;0.50;;
75156;SDS011;63736;50.076;8.198;2024-02-04T04:27:48;2.77;;;0.60;;
75156;SDS011;63736;50.076;8.198;2024-02-04T04:29:18;2.38;;;0.45;;
75156;SDS011;63736;50.076;8.198;2024-02-04T04:30:49;2.10;;;0.43;;
75156;SDS011;63736;50.076;8.198;2024-02-04T04:32:19;1.77;;;0.43;;
75156;SDS011;63736;50.076;8.198;2024-02-04T04:33:49;1.70;;;0.40;;
75156;SDS011;63736;50.076;8.198;2024-02-04T04:35:22;1.50;;;0.40;;
75156;SDS011;63736;50.076;8.198;2024-02-04T04:36:52;1.90;;;0.50;;
75156;SDS011;63736;50.076;8.198;2024-02-04T04:38:22;1.57;;;0.40;;
75156;SDS011;63736;50.076;8.198;2024-02-04T04:39:53;2.10;;;0.40;;
75156;SDS011;63736;50.076;8.198;2024-02-04T04:41:23;1.85;;;0.40;;
75156;SDS011;63736;50.076;8.198;2024-02-04T04:42:53;2.03;;;0.50;;
75156;SDS011;63736;50.076;8.198;2024-02-04T04:44:24;1.77;;;0.40;;
75156;SDS011;63736;50.076;8.198;2024-02-04T04:45:54;1.80;;;0.43;;
75156;SDS011;63736;50.076;8.198;2024-02-04T04:47:25;2.40;;;0.60;;
75156;SDS011;63736;50.076;8.198;2024-02-04T04:48:55;2.07;;;0.50;;
75156;SDS011;63736;50.076;8.198;2024-02-04T04:50:28;1.52;;;0.40;;
75156;SDS011;63736;50.076;8.198;2024-02-04T04:51:58;2.33;;;0.50;;
75156;SDS011;63736;50.076;8.198;2024-02-04T04:53:28;2.60;;;0.60;;
75156;SDS011;63736;50.076;8.198;2024-02-04T04:54:58;1.90;;;0.40;;
75156;SDS011;63736;50.076;8.198;2024-02-04T04:56:29;2.53;;;0.50;;
75156;SDS011;63736;50.076;8.198;2024-02-04T04:57:59;2.60;;;0.50;;
75156;SDS011;63736;50.076;8.198;2024-02-04T04:59:29;1.38;;;0.30;;
75156;SDS011;63736;50.076;8.198;2024-02-04T05:01:00;1.80;;;0.40;;
75156;SDS011;63736;50.076;8.198;2024-02-04T05:02:30;1.50;;;0.37;;
75156;SDS011;63736;50.076;8.198;2024-02-04T05:04:00;1.93;;;0.43;;
75156;SDS011;63736;50.076;8.198;2024-02-04T05:05:30;2.80;;;0.53;;
75156;SDS011;63736;50.076;8.198;2024-02-04T05:07:01;2.10;;;0.50;;
75156;SDS011;63736;50.076;8.198;2024-02-04T05:08:31;1.98;;;0.40;;
75156;SDS011;63736;50.076;8.198;2024-02-04T05:10:01;1.83;;;0.43;;
75156;SDS011;63736;50.076;8.198;2024-02-04T05:11:32;2.17;;;0.50;;
75156;SDS011;63736;50.076;8.198;2024-02-04T05:13:02;1.17;;;0.30;;
75156;SDS011;63736;50.076;8.198;2024-02-04T05:14:32;1.93;;;0.40;;
75156;SDS011;63736;50.076;8.198;2024-02-04T05:16:03;1.80;;;0.50;;
75156;SDS011;63736;50.076;8.198;2024-02-04T05:17:33;1.83;;;0.40;;
75156;SDS011;63736;50.076;8.198;2024-02-04T05:19:04;1.73;;;0.43;;
75156;SDS011;63736;50.076;8.198;2024-02-04T05:20:36;1.27;;;0.30;;
75156;SDS011;63736;50.076;8.198;2024-02-04T05:22:07;1.50;;;0.40;;
75156;SDS011;63736;50.076;8.198;2024-02-04T05:23:37;1.93;;;0.50;;
75156;SDS011;63736;50.076;8.198;2024-02-04T05:25:07;1.83;;;0.40;;
75156;SDS011;63736;50.076;8.198;2024-02-04T05:26:39;1.48;;;0.40;;
75156;SDS011;63736;50.076;8.198;2024-02-04T05:28:09;1.50;;;0.30;;
75156;SDS011;63736;50.076;8.198;2024-02-04T05:29:39;1.77;;;0.40;;
75156;SDS011;63736;50.076;8.198;2024-02-04T05:31:09;1.80;;;0.40;;
75156;SDS011;63736;50.076;8.198;2024-02-04T05:32:40;1.67;;;0.40;;
75156;SDS011;63736;50.076;8.198;2024-02-04T05:34:10;1.87;;;0.43;;
75156;SDS011;63736;50.076;8.198;2024-02-04T05:35:41;1.57;;;0.47;;
75156;SDS011;63736;50.076;8.198;2024-02-04T05:37:12;1.63;;;0.40;;
75156;SDS011;63736;50.076;8.198;2024-02-04T05:38:43;1.77;;;0.40;;
75156;SDS011;63736;50.076;8.198;2024-02-04T05:40:14;1.43;;;0.40;;
75156;SDS011;63736;50.076;8.198;2024-02-04T05:41:47;1.90;;;0.40;;
75156;SDS011;63736;50.076;8.198;2024-02-04T05:43:17;1.60;;;0.30;;
75156;SDS011;63736;50.076;8.198;2024-02-04T05:44:47;3.05;;;0.50;;
75156;SDS011;63736;50.076;8.198;2024-02-04T05:46:17;1.20;;;0.30;;
75156;SDS011;63736;50.076;8.198;2024-02-04T05:47:48;1.10;;;0.30;;
75156;SDS011;63736;50.076;8.198;2024-02-04T05:49:18;2.07;;;0.63;;
75156;SDS011;63736;50.076;8.198;2024-02-04T05:50:48;2.17;;;0.37;;
75156;SDS011;63736;50.076;8.198;2024-02-04T05:52:18;1.53;;;0.30;;
75156;SDS011;63736;50.076;8.198;2024-02-04T05:53:49;2.10;;;0.43;;
75156;SDS011;63736;50.076;8.198;2024-02-04T05:55:19;1.30;;;0.30;;
75156;SDS011;63736;50.076;8.198;2024-02-04T05:56:49;2.30;;;0.50;;
75156;SDS011;63736;50.076;8.198;2024-02-04T05:58:20;1.57;;;0.30;;
75156;SDS011;63736;50.076;8.198;2024-02-04T05:59:50;2.37;;;0.30;;
75156;SDS011;63736;50.076;8.198;2024-02-04T06:01:22;2.80;;;0.40;;
75156;SDS011;63736;50.076;8.198;2024-02-04T06:02:52;2.00;;;0.50;;
75156;SDS011;63736;50.076;8.198;2024-02-04T06:04:23;2.33;;;0.40;;
75156;SDS011;63736;50.076;8.198;2024-02-04T06:05:53;1.90;;;0.40;;
75156;SDS011;63736;50.076;8.198;2024-02-04T06:07:23;1.20;;;0.30;;
75156;SDS011;63736;50.076;8.198;2024-02-04T06:08:54;1.60;;;0.40;;
75156;SDS011;63736;50.076;8.198;2024-02-04T06:10:24;1.80;;;0.43;;
75156;SDS011;63736;50.076;8.198;2024-02-04T06:11:54;1.77;;;0.40;;
75156;SDS011;63736;50.076;8.198;2024-02-04T06:13:24;1.73;;;0.40;;
75156;SDS011;63736;50.076;8.198;2024-02-04T06:14:55;1.73;;;0.40;;
75156;SDS011;63736;50.076;8.198;2024-02-04T06:16:25;1.43;;;0.40;;
75156;SDS011;63736;50.076;8.198;2024-02-04T06:17:56;1.77;;;0.40;;
75156;SDS011;63736;50.076;8.198;2024-02-04T06:19:27;1.63;;;0.50;;
75156;SDS011;63736;50.076;8.198;2024-02-04T06:20:57;2.22;;;0.50;;
75156;SDS011;63736;50.076;8.198;2024-02-04T06:22:27;1.73;;;0.40;;
75156;SDS011;63736;50.076;8.198;2024-02-04T06:23:58;1.77;;;0.50;;
75156;SDS011;63736;50.076;8.198;2024-02-04T06:25:28;1.10;;;0.30;;
75156;SDS011;63736;50.076;8.198;2024-02-04T06:26:58;2.87;;;0.43;;
75156;SDS011;63736;50.076;8.198;2024-02-04T06:28:28;2.10;;;0.33;;
75156;SDS011;63736;50.076;8.198;2024-02-04T06:29:59;1.60;;;0.40;;
75156;SDS011;63736;50.076;8.198;2024-02-04T06:31:29;2.03;;;0.50;;
75156;SDS011;63736;50.076;8.198;2024-02-04T06:32:59;1.73;;;0.40;;
75156;SDS011;63736;50.076;8.198;2024-02-04T06:34:30;1.40;;;0.30;;
75156;SDS011;63736;50.076;8.198;2024-02-04T06:36:00;2.17;;;0.50;;
75156;SDS011;63736;50.076;8.198;2024-02-04T06:37:30;2.40;;;0.47;;
75156;SDS011;63736;50.076;8.198;2024-02-04T06:39:00;1.37;;;0.30;;
75156;SDS011;63736;50.076;8.198;2024-02-04T06:40:31;1.37;;;0.30;;
75156;SDS011;63736;50.076;8.198;2024-02-04T06:42:01;1.37;;;0.33;;
75156;SDS011;63736;50.076;8.198;2024-02-04T06:43:31;2.33;;;0.40;;
75156;SDS011;63736;50.076;8.198;2024-02-04T06:45:02;1.30;;;0.30;;
75156;SDS011;63736;50.076;8.198;2024-02-04T06:46:32;2.67;;;0.40;;
75156;SDS011;63736;50.076;8.198;2024-02-04T06:48:02;1.37;;;0.30;;
75156;SDS011;63736;50.076;8.198;2024-02-04T06:49:33;1.27;;;0.30;;
75156;SDS011;63736;50.076;8.198;2024-02-04T06:51:03;1.43;;;0.40;;
75156;SDS011;63736;50.076;8.198;2024-02-04T06:52:34;2.30;;;0.40;;
75156;SDS011;63736;50.076;8.198;2024-02-04T06:54:04;1.77;;;0.40;;
75156;SDS011;63736;50.076;8.198;2024-02-04T06:55:34;3.77;;;0.47;;
75156;SDS011;63736;50.076;8.198;2024-02-04T06:57:04;1.75;;;0.40;;
75156;SDS011;63736;50.076;8.198;2024-02-04T06:58:37;1.43;;;0.30;;
75156;SDS011;63736;50.076;8.198;2024-02-04T07:00:07;1.23;;;0.30;;
75156;SDS011;63736;50.076;8.198;2024-02-04T07:01:38;2.10;;;0.30;;
75156;SDS011;63736;50.076;8.198;2024-02-04T07:03:09;1.83;;;0.40;;
75156;SDS011;63736;50.076;8.198;2024-02-04T07:04:40;1.30;;;0.30;;
75156;SDS011;63736;50.076;8.198;2024-02-04T07:06:10;1.92;;;0.30;;
75156;SDS011;63736;50.076;8.198;2024-02-04T07:07:41;1.33;;;0.40;;
75156;SDS011;63736;50.076;8.198;2024-02-04T07:09:11;1.67;;;0.40;;
75156;SDS011;63736;50.076;8.198;2024-02-04T07:10:42;1.70;;;0.30;;
75156;SDS011;63736;50.076;8.198;2024-02-04T07:12:12;3.33;;;0.50;;
75156;SDS011;63736;50.076;8.198;2024-02-04T07:13:42;3.43;;;0.83;;
75156;SDS011;63736;50.076;8.198;2024-02-04T07:15:12;4.87;;;1.60;;
75156;SDS011;63736;50.076;8.198;2024-02-04T07:16:43;4.13;;;1.20;;
75156;SDS011;63736;50.076;8.198;2024-02-04T07:18:13;6.82;;;2.67;;
75156;SDS011;63736;50.076;8.198;2024-02-04T07:19:44;5.60;;;1.90;;
75156;SDS011;63736;50.076;8.198;2024-02-04T07:21:14;4.20;;;1.47;;
75156;SDS011;63736;50.076;8.198;2024-02-04T07:22:44;5.50;;;2.00;;
75156;SDS011;63736;50.076;8.198;2024-02-04T07:24:14;5.33;;;1.83;;
75156;SDS011;63736;50.076;8.198;2024-02-04T07:25:45;4.80;;;1.40;;
75156;SDS011;63736;50.076;8.198;2024-02-04T07:27:15;12.57;;;1.70;;
75156;SDS011;63736;50.076;8.198;2024-02-04T07:28:45;7.53;;;2.63;;
75156;SDS011;63736;50.076;8.198;2024-02-04T07:30:16;7.40;;;3.10;;
75156;SDS011;63736;50.076;8.198;2024-02-04T07:31:46;6.30;;;2.30;;
75156;SDS011;63736;50.076;8.198;2024-02-04T07:33:17;9.15;;;3.20;;
75156;SDS011;63736;50.076;8.198;2024-02-04T07:34:47;14.37;;;6.43;;
75156;SDS011;63736;50.076;8.198;2024-02-04T07:36:17;16.27;;;6.30;;
75156;SDS011;63736;50.076;8.198;2024-02-04T07:37:48;13.63;;;5.10;;
75156;SDS011;63736;50.076;8.198;2024-02-04T07:39:18;12.95;;;5.28;;
75156;SDS011;63736;50.076;8.198;2024-02-04T07:40:49;17.27;;;6.23;;
75156;SDS011;63736;50.076;8.198;2024-02-04T07:42:19;14.67;;;5.73;;
75156;SDS011;63736;50.076;8.198;2024-02-04T07:43:49;18.63;;;7.93;;
75156;SDS011;63736;50.076;8.198;2024-02-04T07:45:19;21.60;;;9.00;;
75156;SDS011;63736;50.076;8.198;2024-02-04T07:46:50;28.25;;;11.50;;
75156;SDS011;63736;50.076;8.198;2024-02-04T07:48:20;26.13;;;13.50;;
75156;SDS011;63736;50.076;8.198;2024-02-04T07:49:50;25.20;;;12.43;;
75156;SDS011;63736;50.076;8.198;2024-02-04T07:51:21;24.07;;;12.40;;
75156;SDS011;63736;50.076;8.198;2024-02-04T07:52:51;13.00;;;5.70;;
75156;SDS011;63736;50.076;8.198;2024-02-04T07:54:22;15.38;;;6.93;;
75156;SDS011;63736;50.076;8.198;2024-02-04T07:55:52;17.27;;;8.10;;
75156;SDS011;63736;50.076;8.198;2024-02-04T07:57:22;16.93;;;9.43;;
75156;SDS011;63736;50.076;8.198;2024-02-04T07:58:52;6.03;;;2.07;;
75156;SDS011;63736;50.076;8.198;2024-02-04T08:00:23;14.20;;;6.25;;
75156;SDS011;63736;50.076;8.198;2024-02-04T08:01:53;13.67;;;6.50;;
75156;SDS011;63736;50.076;8.198;2024-02-04T08:03:24;12.47;;;5.07;;
75156;SDS011;63736;50.076;8.198;2024-02-04T08:04:54;9.47;;;3.80;;
75156;SDS011;63736;50.076;8.198;2024-02-04T08:06:24;15.70;;;7.97;;
75156;SDS011;63736;50.076;8.198;2024-02-04T08:07:55;12.75;;;5.53;;
75156;SDS011;63736;50.076;8.198;2024-02-04T08:09:25;7.57;;;3.27;;
75156;SDS011;63736;50.076;8.198;2024-02-04T08:10:55;17.37;;;7.67;;
75156;SDS011;63736;50.076;8.198;2024-02-04T08:12:26;18.30;;;7.88;;
75156;SDS011;63736;50.076;8.198;2024-02-04T08:13:57;8.90;;;3.77;;
75156;SDS011;63736;50.076;8.198;2024-02-04T08:15:27;20.80;;;8.50;;
75156;SDS011;63736;50.076;8.198;2024-02-04T08:16:58;23.17;;;12.10;;
75156;SDS011;63736;50.076;8.198;2024-02-04T08:18:28;11.53;;;5.50;;
75156;SDS011;63736;50.076;8.198;2024-02-04T08:19:58;6.50;;;2.90;;
75156;SDS011;63736;50.076;8.198;2024-02-04T08:21:28;10.03;;;5.50;;
75156;SDS011;63736;50.076;8.198;2024-02-04T08:23:01;12.20;;;7.10;;
75156;SDS011;63736;50.076;8.198;2024-02-04T08:24:32;13.15;;;7.47;;
75156;SDS011;63736;50.076;8.198;2024-02-04T08:26:02;8.37;;;4.37;;
75156;SDS011;63736;50.076;8.198;2024-02-04T08:27:33;12.32;;;8.45;;
75156;SDS011;63736;50.076;8.198;2024-02-04T08:29:04;9.97;;;5.70;;
75156;SDS011;63736;50.076;8.198;2024-02-04T08:30:34;11.30;;;6.15;;
75156;SDS011;63736;50.076;8.198;2024-02-04T08:32:05;10.57;;;5.00;;
75156;SDS011;63736;50.076;8.198;2024-02-04T08:33:36;8.20;;;4.60;;
75156;SDS011;63736;50.076;8.198;2024-02-04T08:35:06;5.93;;;2.70;;
75156;SDS011;63736;50.076;8.198;2024-02-04T08:36:36;8.87;;;4.90;;
75156;SDS011;63736;50.076;8.198;2024-02-04T08:38:07;7.43;;;4.35;;
75156;SDS011;63736;50.076;8.198;2024-02-04T08:39:37;7.40;;;4.17;;
75156;SDS011;63736;50.076;8.198;2024-02-04T08:41:07;4.13;;;1.67;;
75156;SDS011;63736;50.076;8.198;2024-02-04T08:42:38;6.67;;;3.77;;
75156;SDS011;63736;50.076;8.198;2024-02-04T08:44:08;5.50;;;2.60;;
75156;SDS011;63736;50.076;8.198;2024-02-04T08:45:39;5.65;;;3.05;;
75156;SDS011;63736;50.076;8.198;2024-02-04T08:47:09;5.93;;;2.63;;
75156;SDS011;63736;50.076;8.198;2024-02-04T08:48:41;6.40;;;3.13;;
75156;SDS011;63736;50.076;8.198;2024-02-04T08:50:12;5.50;;;2.40;;
75156;SDS011;63736;50.076;8.198;2024-02-04T08:51:43;7.18;;;3.78;;
75156;SDS011;63736;50.076;8.198;2024-02-04T08:53:14;4.90;;;2.67;;
75156;SDS011;63736;50.076;8.198;2024-02-04T08:54:44;7.17;;;4.27;;
75156;SDS011;63736;50.076;8.198;2024-02-04T08:56:15;5.67;;;2.57;;
75156;SDS011;63736;50.076;8.198;2024-02-04T08:57:45;5.75;;;3.08;;
75156;SDS011;63736;50.076;8.198;2024-02-04T08:59:17;5.50;;;2.83;;
75156;SDS011;63736;50.076;8.198;2024-02-04T09:00:48;4.93;;;2.70;;
75156;SDS011;63736;50.076;8.198;2024-02-04T09:02:18;4.80;;;2.23;;
75156;SDS011;63736;50.076;8.198;2024-02-04T09:03:49;3.50;;;1.45;;
75156;SDS011;63736;50.076;8.198;2024-02-04T09:05:20;3.50;;;1.47;;
75156;SDS011;63736;50.076;8.198;2024-02-04T09:06:50;5.30;;;1.10;;
75156;SDS011;63736;50.076;8.198;2024-02-04T09:08:20;3.10;;;1.00;;